createdAt,value
2019-03-21T00:00:32.511Z,8.37
2019-03-21T00:03:05.063Z,8.37
2019-03-21T00:05:38.484Z,8.36
2019-03-21T00:08:10.927Z,8.35
2019-03-21T00:10:43.066Z,8.35
2019-03-21T00:13:15.494Z,8.37
2019-03-21T00:15:48.095Z,8.35
2019-03-21T00:18:20.450Z,8.31
2019-03-21T00:20:55.093Z,8.29
2019-03-21T00:23:27.387Z,8.29
2019-03-21T00:25:59.833Z,8.26
2019-03-21T00:28:32.291Z,8.25
2019-03-21T00:31:04.969Z,8.21
2019-03-21T00:33:37.245Z,8.20
2019-03-21T00:36:09.593Z,8.18
2019-03-21T00:38:42.020Z,8.17
2019-03-21T00:41:14.582Z,8.17
2019-03-21T00:43:46.877Z,8.17
2019-03-21T00:46:19.557Z,8.15
2019-03-21T00:48:51.884Z,8.16
2019-03-21T00:51:24.266Z,8.15
2019-03-21T00:53:56.539Z,8.15
2019-03-21T00:56:29.027Z,8.15
2019-03-21T00:59:01.397Z,8.15
2019-03-21T01:01:33.692Z,8.11
2019-03-21T01:04:06.077Z,8.12
2019-03-21T01:06:38.452Z,8.11
2019-03-21T01:09:11.094Z,8.11
2019-03-21T01:11:43.415Z,8.09
2019-03-21T01:14:15.728Z,8.07
2019-03-21T01:16:48.083Z,8.07
2019-03-21T01:19:20.373Z,8.09
2019-03-21T01:21:52.715Z,8.09
2019-03-21T01:24:25.431Z,8.07
2019-03-21T01:26:57.750Z,8.08
2019-03-21T01:29:30.181Z,8.08
2019-03-21T01:32:02.522Z,8.10
2019-03-21T01:34:36.743Z,8.08
2019-03-21T01:37:09.024Z,8.07
2019-03-21T01:39:41.534Z,8.05
2019-03-21T01:42:13.778Z,8.04
2019-03-21T01:44:46.171Z,8.01
2019-03-21T01:47:18.489Z,8.00
2019-03-21T01:49:50.917Z,8.00
2019-03-21T01:52:23.348Z,8.00
2019-03-21T01:54:56.488Z,8.02
2019-03-21T01:57:28.929Z,8.06
2019-03-21T02:00:01.379Z,8.11
2019-03-21T02:02:33.822Z,8.24
2019-03-21T02:05:06.249Z,8.41
2019-03-21T02:07:39.112Z,8.57
2019-03-21T02:10:11.475Z,8.71
2019-03-21T02:12:43.811Z,8.79
2019-03-21T02:15:16.032Z,8.89
2019-03-21T02:17:48.496Z,8.96
2019-03-21T02:20:20.898Z,9.01
2019-03-21T02:22:53.258Z,9.09
2019-03-21T02:25:25.989Z,9.13
2019-03-21T02:27:58.405Z,9.21
2019-03-21T02:30:30.880Z,9.26
2019-03-21T02:33:04.338Z,9.29
2019-03-21T02:35:36.690Z,9.31
2019-03-21T02:38:09.164Z,9.28
2019-03-21T02:40:41.456Z,9.21
2019-03-21T02:43:13.885Z,9.18
2019-03-21T02:45:46.235Z,9.20
2019-03-21T02:48:19.122Z,9.23
2019-03-21T02:50:51.461Z,9.24
2019-03-21T02:53:23.770Z,9.22
2019-03-21T02:55:57.305Z,9.22
2019-03-21T02:58:29.717Z,9.24
2019-03-21T03:01:02.084Z,9.26
2019-03-21T03:03:34.411Z,9.24
2019-03-21T03:06:06.807Z,9.18
2019-03-21T03:08:39.419Z,9.04
2019-03-21T03:11:11.754Z,8.85
2019-03-21T03:13:44.339Z,8.70
2019-03-21T03:16:16.939Z,8.60
2019-03-21T03:18:50.332Z,8.52
2019-03-21T03:21:22.668Z,8.46
2019-03-21T03:23:55.254Z,8.37
2019-03-21T03:26:27.602Z,8.31
2019-03-21T03:28:59.973Z,8.25
2019-03-21T03:31:32.561Z,8.18
2019-03-21T03:34:04.964Z,8.15
2019-03-21T03:36:37.505Z,8.11
2019-03-21T03:39:09.892Z,8.08
2019-03-21T03:41:42.448Z,8.04
2019-03-21T03:44:17.334Z,8.02
2019-03-21T03:46:49.879Z,7.99
2019-03-21T03:49:23.764Z,7.99
2019-03-21T03:51:56.727Z,8.00
2019-03-21T03:54:29.243Z,7.98
2019-03-21T03:57:01.545Z,7.95
2019-03-21T03:59:33.871Z,7.94
2019-03-21T04:02:06.206Z,7.89
2019-03-21T04:04:38.514Z,7.92
2019-03-21T04:07:11.224Z,7.92
2019-03-21T04:09:43.873Z,7.89
2019-03-21T04:12:16.188Z,7.90
2019-03-21T04:14:48.458Z,7.92
2019-03-21T04:17:20.771Z,7.91
2019-03-21T04:19:53.177Z,7.88
2019-03-21T04:22:25.843Z,7.85
2019-03-21T04:24:58.131Z,7.84
2019-03-21T04:27:30.590Z,7.88
2019-03-21T04:30:04.101Z,7.86
2019-03-21T04:32:36.432Z,7.85
2019-03-21T04:35:11.845Z,7.82
2019-03-21T04:37:44.175Z,7.81
2019-03-21T04:40:16.619Z,7.82
2019-03-21T04:42:49.171Z,7.84
2019-03-21T04:45:21.758Z,7.86
2019-03-21T04:47:54.497Z,7.83
2019-03-21T04:50:26.877Z,7.87
2019-03-21T04:52:59.205Z,7.94
2019-03-21T04:55:31.885Z,8.02
2019-03-21T04:58:04.326Z,8.17
2019-03-21T05:00:36.860Z,8.32
2019-03-21T05:03:09.400Z,8.45
2019-03-21T05:05:41.784Z,8.57
2019-03-21T05:08:14.117Z,8.66
2019-03-21T05:10:46.618Z,8.73
2019-03-21T05:13:19.128Z,8.78
2019-03-21T05:15:51.543Z,8.82
2019-03-21T05:18:23.855Z,8.87
2019-03-21T05:20:56.623Z,8.90
2019-03-21T05:23:29.033Z,8.95
2019-03-21T05:26:03.849Z,9.01
2019-03-21T05:28:35.345Z,9.01
2019-03-21T05:31:07.654Z,9.07
2019-03-21T05:33:40.094Z,9.12
2019-03-21T05:36:12.328Z,9.17
2019-03-21T05:38:47.062Z,9.22
2019-03-21T05:41:19.359Z,9.27
2019-03-21T05:43:51.730Z,9.30
2019-03-21T05:46:27.012Z,9.29
2019-03-21T05:48:58.263Z,9.31
2019-03-21T05:51:30.568Z,9.36
2019-03-21T05:54:04.090Z,9.40
2019-03-21T05:56:36.527Z,9.45
2019-03-21T05:59:08.993Z,9.49
2019-03-21T06:01:41.448Z,9.54
2019-03-21T06:04:13.863Z,9.57
2019-03-21T06:06:46.317Z,9.60
2019-03-21T06:09:18.845Z,9.66
2019-03-21T06:11:51.321Z,9.71
2019-03-21T06:14:23.857Z,9.71
2019-03-21T06:16:56.200Z,9.72
2019-03-21T06:19:28.555Z,9.72
2019-03-21T06:22:01.275Z,9.69
2019-03-21T06:24:33.541Z,9.67
2019-03-21T06:27:14.388Z,9.66
2019-03-21T06:29:40.261Z,9.69
2019-03-21T06:32:13.143Z,9.74
2019-03-21T06:34:46.031Z,9.79
2019-03-21T06:37:18.353Z,9.86
2019-03-21T06:39:50.702Z,9.95
2019-03-21T06:42:23.365Z,10.00
2019-03-21T06:44:55.696Z,10.08
2019-03-21T06:47:27.995Z,10.15
2019-03-21T06:50:00.460Z,10.21
2019-03-21T06:52:32.758Z,10.28
2019-03-21T06:55:05.075Z,10.34
2019-03-21T06:57:37.791Z,10.39
2019-03-21T07:00:09.996Z,10.43
2019-03-21T07:02:42.554Z,10.49
2019-03-21T07:05:14.867Z,10.52
2019-03-21T07:07:47.315Z,10.56
2019-03-21T07:10:19.955Z,10.57
2019-03-21T07:12:52.726Z,10.61
2019-03-21T07:15:25.308Z,10.63
2019-03-21T07:17:57.705Z,10.66
2019-03-21T07:20:30.075Z,10.71
2019-03-21T07:23:04.639Z,10.73
2019-03-21T07:25:37.072Z,10.77
2019-03-21T07:28:09.292Z,10.77
2019-03-21T07:30:41.653Z,10.83
2019-03-21T07:33:14.179Z,10.94
2019-03-21T07:35:46.493Z,11.00
2019-03-21T07:38:18.896Z,11.05
2019-03-21T07:40:51.215Z,11.07
2019-03-21T07:43:23.471Z,10.94
2019-03-21T07:45:55.930Z,10.96
2019-03-21T07:48:28.301Z,11.00
2019-03-21T07:51:00.501Z,11.09
2019-03-21T07:53:32.902Z,11.17
2019-03-21T07:56:05.229Z,11.29
2019-03-21T07:58:37.486Z,11.32
2019-03-21T08:01:09.834Z,11.43
2019-03-21T08:03:42.134Z,11.53
2019-03-21T08:06:14.462Z,11.62
2019-03-21T08:08:46.677Z,11.71
2019-03-21T08:11:18.999Z,11.83
2019-03-21T08:13:52.535Z,11.84
2019-03-21T08:16:24.804Z,11.84
2019-03-21T08:18:57.177Z,11.81
2019-03-21T08:21:29.664Z,11.80
2019-03-21T08:24:01.894Z,11.69
2019-03-21T08:26:35.621Z,11.60
2019-03-21T08:29:08.062Z,11.56
2019-03-21T08:31:40.699Z,11.54
2019-03-21T08:34:13.058Z,11.54
2019-03-21T08:36:45.325Z,11.52
2019-03-21T08:39:17.576Z,11.63
2019-03-21T08:41:49.804Z,11.71
2019-03-21T08:44:22.160Z,11.79
2019-03-21T08:46:54.806Z,11.99
2019-03-21T08:49:27.258Z,11.99
2019-03-21T08:51:59.497Z,12.08
2019-03-21T08:54:31.817Z,12.11
2019-03-21T08:57:04.115Z,12.12
2019-03-21T08:59:36.364Z,12.17
2019-03-21T09:02:08.650Z,12.23
2019-03-21T09:04:41.018Z,12.32
2019-03-21T09:07:13.361Z,12.41
2019-03-21T09:09:45.660Z,12.40
2019-03-21T09:12:18.119Z,12.34
2019-03-21T09:14:50.386Z,12.35
2019-03-21T09:17:22.765Z,12.43
2019-03-21T09:19:55.011Z,12.48
2019-03-21T09:22:27.548Z,12.63
2019-03-21T09:24:59.963Z,12.68
2019-03-21T09:27:32.181Z,12.75
2019-03-21T09:30:05.624Z,12.82
2019-03-21T09:32:37.878Z,12.75
2019-03-21T09:35:12.371Z,12.54
2019-03-21T09:37:44.111Z,12.47
2019-03-21T09:40:16.368Z,12.47
2019-03-21T09:42:48.645Z,12.29
2019-03-21T09:45:20.978Z,12.31
2019-03-21T09:47:53.287Z,12.50
2019-03-21T09:50:25.586Z,12.71
2019-03-21T09:52:58.159Z,12.96
2019-03-21T09:55:30.490Z,13.35
2019-03-21T09:58:04.991Z,13.43
2019-03-21T10:00:37.252Z,13.50
2019-03-21T10:03:09.478Z,13.65
2019-03-21T10:05:41.734Z,13.63
2019-03-21T10:08:14.107Z,13.53
2019-03-21T10:10:46.489Z,13.58
2019-03-21T10:13:19.090Z,13.71
2019-03-21T10:15:51.598Z,13.64
2019-03-21T10:18:23.851Z,13.65
2019-03-21T10:20:56.108Z,13.75
2019-03-21T10:23:28.563Z,13.73
2019-03-21T10:26:00.899Z,13.89
2019-03-21T10:28:33.294Z,13.78
2019-03-21T10:31:05.507Z,13.77
2019-03-21T10:33:37.780Z,13.84
2019-03-21T10:36:09.981Z,13.98
2019-03-21T10:38:42.423Z,14.10
2019-03-21T10:41:14.733Z,14.27
2019-03-21T10:43:46.955Z,14.27
2019-03-21T10:46:19.297Z,14.35
2019-03-21T10:48:51.642Z,14.60
2019-03-21T10:51:23.944Z,14.75
2019-03-21T10:53:57.371Z,14.78
2019-03-21T10:56:29.638Z,14.68
2019-03-21T10:59:01.897Z,14.62
2019-03-21T11:01:34.160Z,14.49
2019-03-21T11:04:06.456Z,14.39
2019-03-21T11:06:38.736Z,14.26
2019-03-21T11:09:10.986Z,14.15
2019-03-21T11:11:43.209Z,13.92
2019-03-21T11:14:15.475Z,13.75
2019-03-21T11:16:47.710Z,13.77
2019-03-21T11:19:20.070Z,13.79
2019-03-21T11:21:52.520Z,13.88
2019-03-21T11:24:24.902Z,13.85
2019-03-21T11:26:57.234Z,13.94
2019-03-21T11:29:29.437Z,13.88
2019-03-21T11:32:01.509Z,13.82
2019-03-21T11:34:33.861Z,13.78
2019-03-21T11:37:06.343Z,13.82
2019-03-21T11:39:38.476Z,13.76
2019-03-21T11:42:10.730Z,13.82
2019-03-21T11:44:42.949Z,13.98
2019-03-21T11:47:15.203Z,14.03
2019-03-21T11:49:47.322Z,13.99
2019-03-21T11:52:19.809Z,14.11
2019-03-21T11:54:52.048Z,14.12
2019-03-21T11:57:24.332Z,14.16
2019-03-21T11:59:56.591Z,14.31
2019-03-21T12:02:28.813Z,14.58
2019-03-21T12:05:01.077Z,14.72
2019-03-21T12:07:33.390Z,14.52
2019-03-21T12:10:05.719Z,14.34
2019-03-21T12:12:37.974Z,14.30
2019-03-21T12:15:10.235Z,14.33
2019-03-21T12:17:42.451Z,14.42
2019-03-21T12:20:14.822Z,14.68
2019-03-21T12:22:47.461Z,14.92
2019-03-21T12:25:19.858Z,14.94
2019-03-21T12:27:52.098Z,14.92
2019-03-21T12:30:25.756Z,14.83
2019-03-21T12:32:58.023Z,14.74
2019-03-21T12:35:30.492Z,14.75
2019-03-21T12:38:02.894Z,14.69
2019-03-21T12:40:35.332Z,14.59
2019-03-21T12:43:07.680Z,14.56
2019-03-21T12:45:39.989Z,14.53
2019-03-21T12:48:12.264Z,14.65
2019-03-21T12:50:45.492Z,14.68
2019-03-21T12:53:17.868Z,14.75
2019-03-21T12:55:50.094Z,14.80
2019-03-21T12:58:22.349Z,14.70
2019-03-21T13:00:54.841Z,14.71
2019-03-21T13:03:27.092Z,14.58
2019-03-21T13:05:59.329Z,14.56
2019-03-21T13:08:34.010Z,14.62
2019-03-21T13:11:06.295Z,14.56
2019-03-21T13:13:38.622Z,14.63
2019-03-21T13:16:11.218Z,14.78
2019-03-21T13:18:43.590Z,14.83
2019-03-21T13:21:15.822Z,14.76
2019-03-21T13:23:48.255Z,14.74
2019-03-21T13:26:20.621Z,14.66
2019-03-21T13:28:52.796Z,14.76
2019-03-21T13:31:25.145Z,14.96
2019-03-21T13:33:57.384Z,14.97
2019-03-21T13:36:29.699Z,14.86
2019-03-21T13:39:02.191Z,14.95
2019-03-21T13:41:35.201Z,14.98
2019-03-21T13:44:07.456Z,15.14
2019-03-21T13:46:39.796Z,15.30
2019-03-21T13:49:12.078Z,15.22
2019-03-21T13:51:44.403Z,15.04
2019-03-21T13:54:16.700Z,14.84
2019-03-21T13:56:49.012Z,14.76
2019-03-21T13:59:21.286Z,14.69
2019-03-21T14:01:53.808Z,14.62
2019-03-21T14:04:26.181Z,14.65
2019-03-21T14:06:58.528Z,14.43
2019-03-21T14:09:32.925Z,14.22
2019-03-21T14:12:05.227Z,14.21
2019-03-21T14:14:37.497Z,14.18
2019-03-21T14:17:21.511Z,14.33
2019-03-21T14:19:45.175Z,14.41
2019-03-21T14:22:17.444Z,14.35
2019-03-21T14:24:49.670Z,14.45
2019-03-21T14:27:22.147Z,14.68
2019-03-21T14:30:01.361Z,14.71
2019-03-21T14:32:29.075Z,14.60
2019-03-21T14:35:01.475Z,14.40
2019-03-21T14:37:33.817Z,13.98
2019-03-21T14:40:06.685Z,14.08
2019-03-21T14:42:39.370Z,13.92
2019-03-21T14:45:11.767Z,14.10
2019-03-21T14:47:44.210Z,14.37
2019-03-21T14:50:16.706Z,14.60
2019-03-21T14:52:49.193Z,14.43
2019-03-21T14:55:21.555Z,14.14
2019-03-21T14:57:54.026Z,13.75
2019-03-21T15:00:26.403Z,13.57
2019-03-21T15:02:58.773Z,13.62
2019-03-21T15:05:31.239Z,13.82
2019-03-21T15:08:03.672Z,13.59
2019-03-21T15:10:36.063Z,13.58
2019-03-21T15:13:08.302Z,13.88
2019-03-21T15:15:40.912Z,14.00
2019-03-21T15:18:13.136Z,14.13
2019-03-21T15:20:45.503Z,14.41
2019-03-21T15:23:18.082Z,14.58
2019-03-21T15:25:50.363Z,14.77
2019-03-21T15:28:22.797Z,14.74
2019-03-21T15:30:55.177Z,14.66
2019-03-21T15:33:27.620Z,14.62
2019-03-21T15:35:59.985Z,14.45
2019-03-21T15:38:32.430Z,14.30
2019-03-21T15:41:05.090Z,14.10
2019-03-21T15:43:37.466Z,13.69
2019-03-21T15:46:10.187Z,13.32
2019-03-21T15:48:42.548Z,13.22
2019-03-21T15:51:15.989Z,13.09
2019-03-21T15:53:55.922Z,12.97
2019-03-21T15:56:22.782Z,12.88
2019-03-21T15:58:55.146Z,12.97
2019-03-21T16:01:27.455Z,12.91
2019-03-21T16:03:59.721Z,13.07
2019-03-21T16:06:32.249Z,13.12
2019-03-21T16:09:04.776Z,12.83
2019-03-21T16:11:37.235Z,12.61
2019-03-21T16:14:09.552Z,12.50
2019-03-21T16:16:41.842Z,12.50
2019-03-21T16:19:14.159Z,12.56
2019-03-21T16:21:46.415Z,12.64
2019-03-21T16:24:18.670Z,12.68
2019-03-21T16:26:50.904Z,12.72
2019-03-21T16:29:23.607Z,12.49
2019-03-21T16:31:56.412Z,12.35
2019-03-21T16:34:28.713Z,12.12
2019-03-21T16:37:01.617Z,12.09
2019-03-21T16:39:34.014Z,12.13
2019-03-21T16:42:06.274Z,12.27
2019-03-21T16:44:38.804Z,12.25
2019-03-21T16:47:11.449Z,12.18
2019-03-21T16:49:43.685Z,12.20
2019-03-21T16:52:16.130Z,12.26
2019-03-21T16:54:48.479Z,12.16
2019-03-21T16:57:20.952Z,12.09
2019-03-21T16:59:55.346Z,12.09
2019-03-21T17:02:28.493Z,12.07
2019-03-21T17:05:00.851Z,12.08
2019-03-21T17:07:33.218Z,11.99
2019-03-21T17:10:05.683Z,11.82
2019-03-21T17:12:40.627Z,11.78
2019-03-21T17:15:13.647Z,11.86
2019-03-21T17:17:46.381Z,11.77
2019-03-21T17:20:18.705Z,11.70
2019-03-21T17:22:52.719Z,11.78
2019-03-21T17:25:25.152Z,11.83
2019-03-21T17:27:57.505Z,11.81
2019-03-21T17:30:31.883Z,11.79
2019-03-21T17:33:04.191Z,11.78
2019-03-21T17:35:36.484Z,11.75
2019-03-21T17:38:08.978Z,11.80
2019-03-21T17:40:43.416Z,11.65
2019-03-21T17:43:15.745Z,11.58
2019-03-21T17:45:48.098Z,11.49
2019-03-21T17:48:20.506Z,11.42
2019-03-21T17:50:52.844Z,11.41
2019-03-21T17:53:25.178Z,11.44
2019-03-21T17:55:57.452Z,11.46
2019-03-21T17:58:29.678Z,11.42
2019-03-21T18:01:01.932Z,11.19
2019-03-21T18:03:34.269Z,11.11
2019-03-21T18:06:06.532Z,11.09
2019-03-21T18:08:38.803Z,11.04
2019-03-21T18:11:11.074Z,11.00
2019-03-21T18:13:43.406Z,11.14
2019-03-21T18:16:18.492Z,11.13
2019-03-21T18:18:49.830Z,11.12
2019-03-21T18:21:22.419Z,11.07
2019-03-21T18:23:55.437Z,10.95
2019-03-21T18:26:28.628Z,10.93
2019-03-21T18:29:01.065Z,10.97
2019-03-21T18:31:33.308Z,11.09
2019-03-21T18:34:05.667Z,11.04
2019-03-21T18:36:38.012Z,11.06
2019-03-21T18:39:10.489Z,11.11
2019-03-21T18:41:42.831Z,11.09
2019-03-21T18:44:15.304Z,11.16
2019-03-21T18:46:47.608Z,11.17
2019-03-21T18:49:19.939Z,11.20
2019-03-21T18:51:53.725Z,11.07
2019-03-21T18:54:26.083Z,10.99
2019-03-21T18:56:58.440Z,10.97
2019-03-21T18:59:31.928Z,10.93
2019-03-21T19:02:04.218Z,10.93
2019-03-21T19:04:36.491Z,10.87
2019-03-21T19:07:08.971Z,10.90
2019-03-21T19:09:43.925Z,10.96
2019-03-21T19:12:25.060Z,11.00
2019-03-21T19:15:03.322Z,10.97
2019-03-21T19:17:38.369Z,11.00
2019-03-21T19:20:10.783Z,10.96
2019-03-21T19:22:43.221Z,10.95
2019-03-21T19:25:19.063Z,10.84
2019-03-21T19:27:50.105Z,10.71
2019-03-21T19:30:22.725Z,10.63
2019-03-21T19:32:55.229Z,10.52
2019-03-21T19:35:27.708Z,10.47
2019-03-21T19:38:00.324Z,10.41
2019-03-21T19:40:33.404Z,10.43
2019-03-21T19:43:07.841Z,10.45
2019-03-21T19:45:42.321Z,10.51
2019-03-21T19:48:14.669Z,10.51
2019-03-21T19:50:47.250Z,10.60
2019-03-21T19:53:19.464Z,10.69
2019-03-21T19:55:51.810Z,10.71
2019-03-21T19:58:24.162Z,10.79
2019-03-21T20:00:56.316Z,10.87
2019-03-21T20:03:28.549Z,10.91
2019-03-21T20:06:00.829Z,10.93
2019-03-21T20:08:36.136Z,10.95
2019-03-21T20:11:08.515Z,10.90
2019-03-21T20:13:41.178Z,10.82
2019-03-21T20:16:13.480Z,10.83
2019-03-21T20:18:45.823Z,10.74
2019-03-21T20:21:18.124Z,10.68
2019-03-21T20:23:50.437Z,10.66
2019-03-21T20:26:22.972Z,10.55
2019-03-21T20:28:55.280Z,10.46
2019-03-21T20:31:27.666Z,10.43
2019-03-21T20:34:00.037Z,10.38
2019-03-21T20:36:32.541Z,10.29
2019-03-21T20:39:04.888Z,10.22
2019-03-21T20:41:37.440Z,10.30
2019-03-21T20:44:15.102Z,10.31
2019-03-21T20:46:43.753Z,10.24
2019-03-21T20:49:16.157Z,10.23
2019-03-21T20:51:48.438Z,10.30
2019-03-21T20:54:20.707Z,10.20
2019-03-21T20:56:52.827Z,10.08
2019-03-21T20:59:25.017Z,10.11
2019-03-21T21:02:02.551Z,10.12
2019-03-21T21:04:32.405Z,10.18
2019-03-21T21:07:04.646Z,10.30
2019-03-21T21:09:36.969Z,10.36
2019-03-21T21:12:09.257Z,10.21
2019-03-21T21:14:41.615Z,10.07
2019-03-21T21:17:14.054Z,10.04
2019-03-21T21:19:46.371Z,9.91
2019-03-21T21:22:18.724Z,9.77
2019-03-21T21:24:50.959Z,9.67
2019-03-21T21:27:25.216Z,9.61
2019-03-21T21:29:57.447Z,9.56
2019-03-21T21:32:29.676Z,9.51
2019-03-21T21:35:01.925Z,9.49
2019-03-21T21:37:34.254Z,9.49
2019-03-21T21:40:06.514Z,9.44
2019-03-21T21:42:39.417Z,9.40
2019-03-21T21:45:11.672Z,9.37
2019-03-21T21:47:44.024Z,9.37
2019-03-21T21:50:16.278Z,9.33
2019-03-21T21:52:48.669Z,9.27
2019-03-21T21:55:20.916Z,9.18
2019-03-21T21:57:53.212Z,9.09
2019-03-21T22:00:25.612Z,9.02
2019-03-21T22:02:57.829Z,8.95
2019-03-21T22:05:30.083Z,8.89
2019-03-21T22:08:02.371Z,8.86
2019-03-21T22:10:35.730Z,8.85
2019-03-21T22:13:08.049Z,8.86
2019-03-21T22:15:40.401Z,8.84
2019-03-21T22:18:12.755Z,8.81
2019-03-21T22:20:45.075Z,8.79
2019-03-21T22:23:17.399Z,8.76
2019-03-21T22:25:50.773Z,8.71
2019-03-21T22:28:23.342Z,8.69
2019-03-21T22:30:55.578Z,8.69
2019-03-21T22:33:28.917Z,8.67
2019-03-21T22:36:01.107Z,8.64
2019-03-21T22:38:33.459Z,8.68
2019-03-21T22:41:05.823Z,8.76
2019-03-21T22:43:38.141Z,8.81
2019-03-21T22:46:10.364Z,8.81
2019-03-21T22:48:42.634Z,8.82
2019-03-21T22:51:14.858Z,8.85
2019-03-21T22:53:47.094Z,8.88
2019-03-21T22:56:19.413Z,8.89
2019-03-21T22:58:51.680Z,8.92
2019-03-21T23:01:23.931Z,8.99
2019-03-21T23:03:56.354Z,9.09
2019-03-21T23:06:28.591Z,9.22
2019-03-21T23:09:01.119Z,9.30
2019-03-21T23:11:35.010Z,9.43
2019-03-21T23:14:07.312Z,9.56
2019-03-21T23:16:40.497Z,9.65
2019-03-21T23:19:12.740Z,9.72
2019-03-21T23:21:45.063Z,9.78
2019-03-21T23:24:17.307Z,9.82
2019-03-21T23:26:53.156Z,9.80
2019-03-21T23:29:26.106Z,9.78
2019-03-21T23:31:58.827Z,9.80
2019-03-21T23:34:31.357Z,9.82
2019-03-21T23:37:03.954Z,9.82
2019-03-21T23:39:36.313Z,9.78
2019-03-21T23:42:08.628Z,9.77
2019-03-21T23:44:40.836Z,9.75
2019-03-21T23:47:13.044Z,9.75
2019-03-21T23:49:45.277Z,9.72
2019-03-21T23:52:17.523Z,9.70
2019-03-21T23:54:49.873Z,9.68
2019-03-21T23:57:22.081Z,9.66
2019-03-21T23:59:54.553Z,9.66
